createdAt,value
2022-09-07T00:00:06.252Z,2.70
2022-09-07T00:03:02.798Z,2.40
2022-09-07T00:05:44.642Z,2.20
2022-09-07T00:08:22.958Z,2.60
2022-09-07T00:11:02.102Z,2.40
2022-09-07T00:13:41.418Z,2.40
2022-09-07T00:16:22.314Z,2.40
2022-09-07T00:19:03.102Z,2.70
2022-09-07T00:21:39.337Z,2.20
2022-09-07T00:24:15.824Z,2.50
2022-09-07T00:26:51.757Z,2.60
2022-09-07T00:29:28.513Z,2.60
2022-09-07T00:32:08.704Z,2.40
2022-09-07T00:34:45.344Z,2.50
2022-09-07T00:37:21.735Z,2.30
2022-09-07T00:39:58.214Z,2.50
2022-09-07T00:42:34.358Z,2.70
2022-09-07T00:45:21.079Z,2.40
2022-09-07T00:48:04.253Z,2.50
2022-09-07T00:50:49.164Z,2.20
2022-09-07T00:53:30.195Z,2.20
2022-09-07T00:56:08.949Z,2.70
2022-09-07T00:58:46.861Z,2.30
2022-09-07T01:01:24.285Z,2.70
2022-09-07T01:04:03.322Z,2.50
2022-09-07T01:06:43.441Z,2.50
2022-09-07T01:09:23.463Z,2.80
2022-09-07T01:12:04.799Z,2.80
2022-09-07T01:14:49.565Z,2.40
2022-09-07T01:17:43.239Z,2.80
2022-09-07T01:21:19.770Z,2.70
2022-09-07T01:24:39.770Z,2.80
2022-09-07T01:28:07.443Z,2.50
2022-09-07T01:30:56.053Z,2.60
2022-09-07T01:33:56.838Z,2.50
2022-09-07T01:36:43.259Z,2.60
2022-09-07T01:39:24.916Z,2.60
2022-09-07T01:42:08.963Z,2.50
2022-09-07T01:44:51.316Z,2.50
2022-09-07T01:47:33.445Z,2.30
2022-09-07T01:50:19.698Z,3.00
2022-09-07T01:53:03.273Z,3.20
2022-09-07T01:55:47.963Z,3.20
2022-09-07T01:58:30.445Z,3.30
2022-09-07T02:01:12.208Z,3.10
2022-09-07T02:06:40.142Z,3.10
2022-09-07T02:09:28.065Z,3.00
2022-09-07T02:12:11.719Z,2.90
2022-09-07T02:14:54.706Z,3.10
2022-09-07T02:17:39.216Z,3.00
2022-09-07T02:20:22.696Z,3.20
2022-09-07T02:23:05.972Z,2.50
2022-09-07T02:25:47.960Z,2.60
2022-09-07T02:31:02.292Z,2.90
2022-09-07T02:33:38.645Z,3.20
2022-09-07T02:36:19.444Z,2.90
2022-09-07T02:38:55.558Z,3.10
2022-09-07T02:41:42.393Z,3.20
2022-09-07T02:44:29.601Z,3.40
2022-09-07T02:47:27.934Z,3.20
2022-09-07T02:50:52.374Z,3.20
2022-09-07T02:54:08.690Z,3.20
2022-09-07T02:57:06.876Z,2.90
2022-09-07T03:00:01.780Z,3.30
2022-09-07T03:02:52.875Z,3.00
2022-09-07T03:05:38.937Z,3.20
2022-09-07T03:08:20.768Z,3.30
2022-09-07T03:10:57.372Z,2.90
2022-09-07T03:13:34.570Z,3.10
2022-09-07T03:16:15.928Z,3.10
2022-09-07T03:18:52.955Z,2.90
2022-09-07T03:21:29.109Z,3.30
2022-09-07T03:24:06.285Z,3.20
2022-09-07T03:26:46.928Z,3.10
2022-09-07T03:29:23.215Z,3.50
2022-09-07T03:31:59.176Z,3.20
2022-09-07T03:34:36.430Z,3.50
2022-09-07T03:37:12.421Z,3.00
2022-09-07T03:39:48.515Z,3.60
2022-09-07T03:42:25.118Z,3.80
2022-09-07T03:45:01.139Z,3.40
2022-09-07T03:47:38.789Z,3.20
2022-09-07T03:50:15.910Z,4.20
2022-09-07T03:52:51.919Z,3.40
2022-09-07T03:55:28.040Z,3.50
2022-09-07T03:58:04.090Z,3.20
2022-09-07T04:00:43.616Z,3.40
2022-09-07T04:03:19.501Z,4.00
2022-09-07T04:05:57.556Z,3.60
2022-09-07T04:08:35.967Z,3.60
2022-09-07T04:11:15.446Z,3.60
2022-09-07T04:13:51.750Z,3.40
2022-09-07T04:16:29.810Z,3.40
2022-09-07T04:19:06.878Z,3.60
2022-09-07T04:21:47.205Z,3.20
2022-09-07T04:24:23.373Z,3.70
2022-09-07T04:26:59.552Z,3.40
2022-09-07T04:29:36.009Z,4.00
2022-09-07T04:32:15.650Z,3.50
2022-09-07T04:34:54.522Z,3.50
2022-09-07T04:37:31.017Z,4.00
2022-09-07T04:40:08.398Z,4.80
2022-09-07T04:42:44.985Z,4.10
2022-09-07T04:45:21.203Z,3.80
2022-09-07T04:47:57.155Z,3.90
2022-09-07T04:50:33.156Z,3.90
2022-09-07T04:53:09.096Z,3.50
2022-09-07T04:55:45.101Z,3.60
2022-09-07T04:58:21.044Z,3.30
2022-09-07T05:00:57.212Z,4.00
2022-09-07T05:03:36.379Z,3.80
2022-09-07T05:06:14.167Z,3.70
2022-09-07T05:08:54.019Z,3.70
2022-09-07T05:11:31.177Z,3.70
2022-09-07T05:14:08.282Z,4.00
2022-09-07T05:16:44.500Z,4.00
2022-09-07T05:19:20.546Z,4.20
2022-09-07T05:21:57.981Z,4.30
2022-09-07T05:24:36.819Z,4.40
2022-09-07T05:27:12.870Z,4.30
2022-09-07T05:30:05.093Z,4.10
2022-09-07T05:32:45.531Z,4.10
2022-09-07T05:35:21.771Z,4.30
2022-09-07T05:37:57.658Z,4.00
2022-09-07T05:40:40.491Z,4.60
2022-09-07T05:43:16.863Z,4.80
2022-09-07T05:45:55.334Z,4.70
2022-09-07T05:48:31.939Z,4.40
2022-09-07T05:51:09.346Z,4.50
2022-09-07T05:53:48.886Z,3.90
2022-09-07T05:56:24.836Z,4.70
2022-09-07T05:59:00.816Z,5.10
2022-09-07T06:01:36.936Z,4.60
2022-09-07T06:04:12.925Z,4.60
2022-09-07T06:07:17.696Z,4.70
2022-09-07T06:12:44.339Z,4.50
2022-09-07T06:15:23.079Z,5.00
2022-09-07T06:17:59.085Z,4.90
2022-09-07T06:20:35.078Z,4.90
2022-09-07T06:23:11.068Z,5.10
2022-09-07T06:25:54.810Z,4.60
2022-09-07T06:28:36.142Z,4.70
2022-09-07T06:31:15.582Z,4.40
2022-09-07T06:33:53.401Z,4.70
2022-09-07T06:36:31.827Z,5.20
2022-09-07T06:39:08.042Z,4.70
2022-09-07T06:41:59.308Z,5.10
2022-09-07T06:44:38.475Z,5.00
2022-09-07T06:47:14.810Z,4.50
2022-09-07T06:49:50.994Z,5.20
2022-09-07T06:52:28.251Z,5.20
2022-09-07T06:55:04.538Z,5.00
2022-09-07T06:57:40.577Z,5.20
2022-09-07T07:00:19.308Z,5.60
2022-09-07T07:02:55.447Z,5.90
2022-09-07T07:05:31.986Z,5.30
2022-09-07T07:08:08.236Z,5.10
2022-09-07T07:10:44.840Z,5.30
2022-09-07T07:16:02.101Z,5.20
2022-09-07T07:18:39.110Z,5.00
2022-09-07T07:21:17.377Z,5.40
2022-09-07T07:23:56.239Z,4.80
2022-09-07T07:26:34.113Z,5.50
2022-09-07T07:29:12.091Z,5.90
2022-09-07T07:31:49.241Z,5.20
2022-09-07T07:34:25.578Z,5.30
2022-09-07T07:37:01.796Z,5.50
2022-09-07T07:42:34.236Z,4.60
2022-09-07T07:48:12.461Z,5.50
2022-09-07T07:50:57.718Z,5.20
2022-09-07T07:53:43.402Z,5.00
2022-09-07T07:56:19.869Z,5.20
2022-09-07T07:58:55.846Z,5.40
2022-09-07T08:01:32.522Z,5.10
2022-09-07T08:04:09.183Z,4.90
2022-09-07T08:06:47.649Z,4.90
2022-09-07T08:09:23.529Z,5.60
2022-09-07T08:11:59.703Z,5.20
2022-09-07T08:14:40.970Z,5.30
2022-09-07T08:17:20.045Z,4.90
2022-09-07T08:19:56.374Z,5.00
2022-09-07T08:22:34.830Z,5.00
2022-09-07T08:25:12.878Z,5.20
2022-09-07T08:27:48.649Z,5.00
2022-09-07T08:30:25.421Z,5.40
2022-09-07T08:33:01.272Z,4.90
2022-09-07T08:35:37.638Z,5.30
2022-09-07T08:38:15.249Z,4.80
2022-09-07T08:40:54.439Z,5.20
2022-09-07T08:43:54.806Z,5.00
2022-09-07T08:46:39.606Z,4.60
2022-09-07T08:49:27.281Z,4.90
2022-09-07T08:52:09.797Z,5.10
2022-09-07T08:54:56.023Z,4.90
2022-09-07T08:57:36.600Z,4.50
2022-09-07T09:00:18.198Z,4.70
2022-09-07T09:06:06.587Z,5.10
2022-09-07T09:09:09.357Z,4.90
2022-09-07T09:12:01.039Z,4.60
2022-09-07T09:14:58.255Z,4.80
2022-09-07T09:17:42.484Z,4.50
2022-09-07T09:20:32.215Z,4.60
2022-09-07T09:23:18.716Z,4.80
2022-09-07T09:26:00.167Z,4.90
2022-09-07T09:28:36.010Z,4.00
2022-09-07T09:31:28.075Z,4.50
2022-09-07T09:34:23.636Z,4.20
2022-09-07T09:37:03.163Z,4.40
2022-09-07T09:39:42.686Z,4.20
2022-09-07T09:42:31.479Z,4.60
2022-09-07T09:45:20.859Z,4.10
2022-09-07T09:48:01.340Z,4.00
2022-09-07T09:53:51.641Z,3.90
2022-09-07T09:56:43.950Z,4.50
2022-09-07T10:05:43.784Z,4.20
2022-09-07T10:08:28.514Z,4.30
2022-09-07T10:11:09.339Z,3.70
2022-09-07T10:13:58.461Z,4.00
2022-09-07T10:16:45.048Z,4.00
2022-09-07T10:19:37.073Z,3.60
2022-09-07T10:22:34.450Z,3.70
2022-09-07T10:25:34.905Z,3.80
2022-09-07T10:28:23.958Z,3.90
2022-09-07T10:31:22.979Z,3.50
2022-09-07T10:34:27.708Z,3.60
2022-09-07T10:37:09.004Z,3.90
2022-09-07T10:40:00.610Z,3.60
2022-09-07T10:43:20.802Z,3.70
2022-09-07T10:46:01.196Z,3.60
2022-09-07T10:48:51.263Z,3.40
2022-09-07T10:51:38.111Z,3.50
2022-09-07T10:54:31.408Z,3.40
2022-09-07T10:57:34.459Z,3.90
2022-09-07T11:00:18.017Z,3.90
2022-09-07T11:03:39.876Z,3.80
2022-09-07T11:06:26.797Z,3.30
2022-09-07T11:09:32.773Z,3.60
2022-09-07T11:12:19.014Z,3.70
2022-09-07T11:15:06.784Z,3.60
2022-09-07T11:17:53.888Z,3.80
2022-09-07T11:20:37.282Z,3.30
2022-09-07T11:23:27.359Z,3.80
2022-09-07T11:26:14.190Z,3.80
2022-09-07T11:32:04.688Z,4.00
2022-09-07T11:34:52.237Z,3.60
2022-09-07T11:37:39.743Z,4.10
2022-09-07T11:40:28.214Z,3.90
2022-09-07T11:43:17.810Z,3.80
2022-09-07T11:45:59.462Z,5.30
2022-09-07T11:48:42.981Z,4.40
2022-09-07T11:51:38.729Z,3.90
2022-09-07T11:54:38.768Z,3.80
2022-09-07T11:57:39.817Z,4.00
2022-09-07T12:00:24.684Z,3.90
2022-09-07T12:03:41.544Z,3.60
2022-09-07T12:07:07.200Z,3.80
2022-09-07T12:10:15.480Z,4.00
2022-09-07T12:13:29.064Z,3.90
2022-09-07T12:16:14.034Z,4.20
2022-09-07T12:19:20.032Z,3.80
2022-09-07T12:22:02.005Z,3.80
2022-09-07T12:24:46.859Z,3.60
2022-09-07T12:27:44.048Z,3.80
2022-09-07T12:31:01.622Z,4.10
2022-09-07T12:33:41.240Z,3.70
2022-09-07T12:36:52.858Z,4.10
2022-09-07T12:39:32.523Z,3.70
2022-09-07T12:42:32.163Z,3.80
2022-09-07T12:45:53.214Z,4.00
2022-09-07T12:48:50.319Z,3.50
2022-09-07T12:55:04.367Z,3.80
2022-09-07T12:57:58.298Z,4.00
2022-09-07T13:01:05.221Z,4.10
2022-09-07T13:04:30.020Z,4.30
2022-09-07T13:07:49.756Z,3.40
2022-09-07T13:10:36.483Z,4.30
2022-09-07T13:20:30.414Z,4.00
2022-09-07T13:23:28.476Z,3.30
2022-09-07T13:26:07.696Z,3.80
2022-09-07T13:29:03.482Z,3.80
2022-09-07T13:32:08.550Z,3.90
2022-09-07T13:34:55.914Z,4.10
2022-09-07T13:37:38.501Z,3.90
2022-09-07T13:40:24.790Z,4.00
2022-09-07T13:43:04.126Z,3.60
2022-09-07T13:46:01.551Z,3.90
2022-09-07T13:48:44.029Z,3.50
2022-09-07T13:51:30.520Z,4.20
2022-09-07T13:54:17.912Z,3.50
2022-09-07T13:57:07.555Z,3.90
2022-09-07T13:59:46.320Z,4.20
2022-09-07T14:02:33.388Z,3.50
2022-09-07T14:05:18.149Z,3.50
2022-09-07T14:07:54.213Z,3.80
2022-09-07T14:10:31.262Z,3.90
2022-09-07T14:13:16.604Z,3.90
2022-09-07T14:15:53.757Z,4.40
2022-09-07T14:18:35.477Z,3.70
2022-09-07T14:21:20.357Z,4.10
2022-09-07T14:23:58.234Z,4.10
2022-09-07T14:26:35.586Z,3.90
2022-09-07T14:29:30.152Z,3.80
2022-09-07T14:32:14.878Z,3.80
2022-09-07T14:34:52.221Z,3.40
2022-09-07T14:37:29.577Z,3.90
2022-09-07T14:40:08.029Z,3.80
2022-09-07T14:42:46.058Z,3.90
2022-09-07T14:45:37.610Z,3.50
2022-09-07T14:48:31.503Z,3.70
2022-09-07T14:51:29.659Z,4.00
2022-09-07T14:54:08.967Z,3.60
2022-09-07T14:57:01.221Z,3.30
2022-09-07T14:59:48.448Z,3.80
2022-09-07T15:02:39.282Z,4.50
2022-09-07T15:05:31.003Z,4.00
2022-09-07T15:11:32.770Z,3.60
2022-09-07T15:13:45.935Z,3.60
2022-09-07T15:16:31.053Z,3.50
2022-09-07T15:19:28.618Z,3.80
2022-09-07T15:22:13.380Z,3.40
2022-09-07T15:24:51.058Z,3.90
2022-09-07T15:27:32.266Z,3.70
2022-09-07T15:30:10.745Z,3.40
2022-09-07T15:32:46.750Z,3.80
2022-09-07T15:35:22.848Z,3.80
2022-09-07T15:38:03.251Z,3.90
2022-09-07T15:41:18.130Z,3.80
2022-09-07T15:43:44.345Z,4.00
2022-09-07T15:46:20.772Z,4.40
2022-09-07T15:48:58.937Z,3.70
2022-09-07T15:54:35.018Z,4.10
2022-09-07T16:00:11.966Z,4.00
2022-09-07T16:03:07.827Z,4.00
2022-09-07T16:05:47.031Z,4.20
2022-09-07T16:08:26.477Z,4.10
2022-09-07T16:11:14.687Z,4.20
2022-09-07T16:14:01.814Z,3.90
2022-09-07T16:19:36.010Z,4.20
2022-09-07T16:23:13.197Z,4.40
2022-09-07T16:25:09.826Z,4.40
2022-09-07T16:27:45.888Z,4.20
2022-09-07T16:30:22.326Z,4.30
2022-09-07T16:32:58.843Z,4.30
2022-09-07T16:35:34.815Z,4.60
2022-09-07T16:41:11.561Z,12.40
2022-09-07T16:43:48.189Z,10.20
2022-09-07T16:46:27.723Z,20.00
2022-09-07T16:49:05.674Z,15.20
2022-09-07T16:51:42.663Z,20.80
2022-09-07T16:54:18.754Z,8.10
2022-09-07T16:56:54.697Z,12.70
2022-09-07T16:59:31.227Z,5.30
2022-09-07T17:02:07.433Z,5.90
2022-09-07T17:04:43.498Z,5.70
2022-09-07T17:07:19.401Z,5.70
2022-09-07T17:09:55.695Z,8.90
2022-09-07T17:12:31.547Z,7.80
2022-09-07T17:15:09.414Z,5.70
2022-09-07T17:17:45.589Z,5.50
2022-09-07T17:20:21.925Z,6.60
2022-09-07T17:23:00.737Z,5.90
2022-09-07T17:25:37.947Z,6.10
2022-09-07T17:28:16.794Z,5.70
2022-09-07T17:30:52.597Z,5.30
2022-09-07T17:33:28.607Z,6.00
2022-09-07T17:36:10.112Z,5.70
2022-09-07T17:41:42.368Z,5.50
2022-09-07T17:44:18.810Z,5.80
2022-09-07T17:46:54.922Z,6.30
2022-09-07T17:49:31.402Z,9.10
2022-09-07T17:52:07.939Z,16.40
2022-09-07T17:54:43.796Z,9.60
2022-09-07T17:57:22.602Z,8.40
2022-09-07T18:00:15.830Z,7.60
2022-09-07T18:02:51.746Z,7.70
2022-09-07T18:05:27.801Z,7.40
2022-09-07T18:08:06.056Z,7.60
2022-09-07T18:13:39.951Z,7.00
2022-09-07T18:16:23.492Z,6.70
2022-09-07T18:19:02.217Z,7.10
2022-09-07T18:21:42.071Z,7.80
2022-09-07T18:24:23.306Z,6.50
2022-09-07T18:26:59.150Z,6.50
2022-09-07T18:29:35.318Z,5.90
2022-09-07T18:32:12.639Z,6.10
2022-09-07T18:34:50.718Z,6.90
2022-09-07T18:37:27.046Z,6.20
2022-09-07T18:40:03.598Z,6.20
2022-09-07T18:42:40.530Z,6.20
2022-09-07T18:45:32.761Z,6.60
2022-09-07T18:48:12.468Z,6.90
2022-09-07T18:50:55.800Z,6.50
2022-09-07T18:53:33.652Z,7.50
2022-09-07T18:56:14.265Z,7.10
2022-09-07T18:58:55.797Z,7.00
2022-09-07T19:01:32.178Z,7.30
2022-09-07T19:04:08.635Z,7.60
2022-09-07T19:06:44.831Z,8.20
2022-09-07T19:09:21.413Z,7.20
2022-09-07T19:11:57.400Z,7.40
2022-09-07T19:14:35.778Z,7.20
2022-09-07T19:17:12.380Z,7.30
2022-09-07T19:19:48.692Z,8.00
2022-09-07T19:22:26.809Z,7.30
2022-09-07T19:25:02.820Z,7.00
2022-09-07T19:27:39.043Z,7.00
2022-09-07T19:30:17.512Z,6.70
2022-09-07T19:32:53.608Z,7.80
2022-09-07T19:35:30.248Z,6.90
2022-09-07T19:38:06.683Z,7.00
2022-09-07T19:40:42.709Z,6.80
2022-09-07T19:43:18.579Z,6.90
2022-09-07T19:45:54.499Z,6.50
2022-09-07T19:48:31.659Z,6.80
2022-09-07T19:51:10.754Z,7.20
2022-09-07T19:53:48.878Z,6.90
2022-09-07T19:56:25.233Z,6.60
2022-09-07T19:59:01.512Z,7.10
2022-09-07T20:01:40.009Z,7.80
2022-09-07T20:04:20.605Z,7.10
2022-09-07T20:06:56.756Z,7.30
2022-09-07T20:09:32.870Z,7.40
2022-09-07T20:12:11.685Z,7.30
2022-09-07T20:14:47.903Z,6.70
2022-09-07T20:17:23.839Z,6.90
2022-09-07T20:20:01.034Z,7.30
2022-09-07T20:22:37.005Z,6.90
2022-09-07T20:25:13.850Z,7.00
2022-09-07T20:27:49.925Z,7.10
2022-09-07T20:30:25.945Z,7.10
2022-09-07T20:33:02.659Z,6.70
2022-09-07T20:35:38.565Z,6.70
2022-09-07T20:38:15.018Z,7.10
2022-09-07T20:41:02.052Z,6.90
2022-09-07T20:43:38.357Z,6.40
2022-09-07T20:46:15.635Z,6.40
2022-09-07T20:48:51.661Z,7.20
2022-09-07T20:51:27.716Z,6.60
2022-09-07T20:54:03.649Z,6.90
2022-09-07T20:56:39.539Z,7.00
2022-09-07T20:59:15.746Z,7.00
2022-09-07T21:01:55.324Z,6.70
2022-09-07T21:04:31.643Z,6.40
2022-09-07T21:07:07.658Z,6.60
2022-09-07T21:09:43.409Z,6.60
2022-09-07T21:12:19.525Z,6.30
2022-09-07T21:14:58.277Z,5.90
2022-09-07T21:17:34.184Z,6.20
2022-09-07T21:20:11.964Z,6.50
2022-09-07T21:22:48.276Z,6.10
2022-09-07T21:25:24.263Z,6.00
2022-09-07T21:28:00.122Z,5.70
2022-09-07T21:30:36.177Z,5.70
2022-09-07T21:33:12.167Z,5.30
2022-09-07T21:35:48.052Z,5.80
2022-09-07T21:38:24.962Z,5.60
2022-09-07T21:41:00.829Z,5.70
2022-09-07T21:43:36.999Z,5.70
2022-09-07T21:46:15.885Z,5.80
2022-09-07T21:48:52.077Z,5.10
2022-09-07T21:51:28.974Z,5.30
2022-09-07T21:54:05.724Z,5.30
2022-09-07T21:56:46.385Z,5.20
2022-09-07T21:59:22.749Z,4.90
2022-09-07T22:01:58.637Z,5.20
2022-09-07T22:04:36.896Z,6.00
2022-09-07T22:07:12.891Z,5.50
2022-09-07T22:09:48.953Z,5.10
2022-09-07T22:12:24.889Z,5.50
2022-09-07T22:15:01.036Z,5.10
2022-09-07T22:17:37.110Z,5.10
2022-09-07T22:20:15.680Z,5.10
2022-09-07T22:22:51.620Z,5.00
2022-09-07T22:25:27.711Z,6.00
2022-09-07T22:28:03.985Z,5.60
2022-09-07T22:30:39.805Z,5.40
2022-09-07T22:33:15.657Z,5.80
2022-09-07T22:35:51.840Z,5.30
2022-09-07T22:38:28.770Z,5.10
2022-09-07T22:41:13.853Z,4.90
2022-09-07T22:43:51.236Z,5.30
2022-09-07T22:46:32.007Z,5.70
2022-09-07T22:49:11.727Z,5.40
2022-09-07T22:51:48.393Z,5.30
2022-09-07T22:54:24.648Z,5.50
2022-09-07T22:57:00.509Z,5.40
2022-09-07T22:59:36.878Z,5.20
2022-09-07T23:02:12.818Z,5.70
2022-09-07T23:04:48.773Z,5.40
2022-09-07T23:07:24.776Z,5.70
2022-09-07T23:10:01.039Z,6.00
2022-09-07T23:12:36.969Z,5.40
2022-09-07T23:15:14.401Z,5.30
2022-09-07T23:17:51.955Z,5.90
2022-09-07T23:20:27.765Z,6.00
2022-09-07T23:23:03.620Z,6.30
2022-09-07T23:25:43.144Z,5.70
2022-09-07T23:28:19.090Z,6.00
2022-09-07T23:30:55.400Z,5.80
2022-09-07T23:33:32.568Z,6.30
2022-09-07T23:36:11.018Z,5.80
2022-09-07T23:38:47.283Z,5.60
2022-09-07T23:41:23.262Z,5.50
2022-09-07T23:44:00.568Z,5.90
2022-09-07T23:46:36.417Z,6.10
2022-09-07T23:49:12.312Z,5.90
2022-09-07T23:51:48.163Z,6.70
2022-09-07T23:54:24.043Z,6.10
2022-09-07T23:57:00.365Z,6.00
2022-09-07T23:59:36.150Z,5.80
